George Washington Bridge — 3EES2 — position and weather

sailwx.info

Track history (hours):
 
Tides and Currents Weather Stations Pressure Air Temp Water Temp Dewpoint Dewpoint Depression Visibility Wind Speed Wind Dir Waves Ship Positions

George Washington Bridge

Last reported at 2017-Nov-19 05:00 UTC. Time now 2017-Nov-24 05:51 UTC.
Position N 36°41' W 011°38'.

Length 284.7 m; beam 40 m.

Type: Cargo ship. MMSI: 371799000.

Date/timePositionNaut miles runAvg speedWind from/ knotsBaromVisibWave heightAir tempDewpointWater temp
2017-Nov-19 05:00N 36°41' W 011°38'1621.0
2017-Nov-19 04:14N 36°38' W 011°18'2721.0
2017-Nov-19 02:57N 36°33' W 010°46'921.2
2017-Nov-19 02:30N 36°31' W 010°34'2220.8
2017-Nov-19 01:27N 36°26' W 010°08'920.9
2017-Nov-19 01:01N 36°24' W 009°56'1421.0
2017-Nov-19 00:19N 36°21' W 009°39'721.1
2017-Nov-18 23:59N 36°20' W 009°30'1020.9
2017-Nov-18 23:30N 36°19' W 009°18'1121.0
2017-Nov-18 22:59N 36°17' W 009°04'2820.9
2017-Nov-18 21:37N 36°14' W 008°29'321.2
2017-Nov-18 21:28N 36°14' W 008°25'1421.0
2017-Nov-18 20:48N 36°12' W 008°08'620.8
2017-Nov-18 20:30N 36°11' W 008°00'1120.9
2017-Nov-18 20:00N 36°09' W 007°47'1021.0
2017-Nov-18 19:31N 36°08' W 007°35'9920.2
2017-Nov-18 14:37N 35°58' W 005°33'319.9
2017-Nov-18 14:29N 35°58' W 005°30'919.6
2017-Nov-18 14:00N 36°02' W 005°19'92119.9
2017-Nov-16 15:40N 36°40' E 013°44'420.1
2017-Nov-16 15:28N 36°38' E 013°49'1020.0
2017-Nov-16 14:57N 36°35' E 014°01'920.0
2017-Nov-16 14:30N 36°32' E 014°12'1019.8
2017-Nov-16 14:00N 36°30' E 014°23'1019.6
2017-Nov-16 13:30N 36°26' E 014°35'1019.5
2017-Nov-16 13:00N 36°22' E 014°46'1019.8
2017-Nov-16 12:30N 36°20' E 014°58'  
Track history (hours):
 
Tides and Currents Weather Stations Pressure Air Temp Water Temp Dewpoint Dewpoint Depression Visibility Wind Speed Wind Dir Waves Ship Positions

George Washington Bridge

Last reported at 2017-Nov-19 05:00 UTC. Time now 2017-Nov-24 05:51 UTC.
Position N 36°41' W 011°38'.

Length 284.7 m; beam 40 m.

Type: Cargo ship. MMSI: 371799000.

Date/timePositionNaut miles runAvg speedWind from/ knotsBaromVisibWave heightAir tempDewpointWater temp
2017-Nov-19 05:00N 36°41' W 011°38'1621.0
2017-Nov-19 04:14N 36°38' W 011°18'2721.0
2017-Nov-19 02:57N 36°33' W 010°46'921.2
2017-Nov-19 02:30N 36°31' W 010°34'2220.8
2017-Nov-19 01:27N 36°26' W 010°08'920.9
2017-Nov-19 01:01N 36°24' W 009°56'1421.0
2017-Nov-19 00:19N 36°21' W 009°39'721.1
2017-Nov-18 23:59N 36°20' W 009°30'1020.9
2017-Nov-18 23:30N 36°19' W 009°18'1121.0
2017-Nov-18 22:59N 36°17' W 009°04'2820.9
2017-Nov-18 21:37N 36°14' W 008°29'321.2
2017-Nov-18 21:28N 36°14' W 008°25'1421.0
2017-Nov-18 20:48N 36°12' W 008°08'620.8
2017-Nov-18 20:30N 36°11' W 008°00'1120.9
2017-Nov-18 20:00N 36°09' W 007°47'1021.0
2017-Nov-18 19:31N 36°08' W 007°35'9920.2
2017-Nov-18 14:37N 35°58' W 005°33'319.9
2017-Nov-18 14:29N 35°58' W 005°30'919.6
2017-Nov-18 14:00N 36°02' W 005°19'92119.9
2017-Nov-16 15:40N 36°40' E 013°44'420.1
2017-Nov-16 15:28N 36°38' E 013°49'1020.0
2017-Nov-16 14:57N 36°35' E 014°01'920.0
2017-Nov-16 14:30N 36°32' E 014°12'1019.8
2017-Nov-16 14:00N 36°30' E 014°23'1019.6
2017-Nov-16 13:30N 36°26' E 014°35'1019.5
2017-Nov-16 13:00N 36°22' E 014°46'1019.8
2017-Nov-16 12:30N 36°20' E 014°58'  

Dump ship's entire track history